Station Historical Data
Daily Summary for January 1, 2017 Units:  English    Metric   Both
Next Day »
Daily Weekly Monthly Yearly Custom
  High: Low: Average:
Temperature: 36.8 °F 33.4 °F 35.8 °F
Dew Point: 36.5 °F 31.9 °F 34.3 °F
Humidity: 100% 93% 94%
Wind Speed: 19.0mph 0.0mph 6.1mph
Wind Gust: 26.0mph - -
Wind- - South
Pressure: 30.00 in 29.91 in -
Precipitation: 0.07 in    
Historical Graphs
 
 
Tabular Data for January 1, 2017
Time Temperature Dew Point Pressure Wind Wind Speed Wind Gust Humidity Rainfall Rate (Hourly) solar Conditions
00:02 36.2 °F 34.6 °F 29.98 in Calm     94% 0.00 in 0.00 W/m2
00:07 36.3 °F 34.7 °F 29.98 in East 2.0 mph 2.0 mph 94% 0.00 in 0.00 W/m2
00:12 36.3 °F 34.7 °F 29.98 in Calm   6.0 mph 94% 0.00 in 0.00 W/m2
00:17 36.4 °F 34.8 °F 29.97 in Calm   4.0 mph 94% 0.00 in 0.00 W/m2
00:22 36.4 °F 34.8 °F 29.97 in ESE 1.0 mph 6.0 mph 94% 0.00 in 0.00 W/m2
00:27 36.4 °F 34.8 °F 29.98 in Calm     94% 0.00 in 0.00 W/m2
00:32 36.4 °F 34.8 °F 29.98 in Calm     94% 0.00 in 0.00 W/m2
00:37 36.5 °F 34.9 °F 29.98 in Calm     94% 0.00 in 0.00 W/m2
00:42 36.5 °F 34.9 °F 29.98 in Calm     94% 0.00 in 0.00 W/m2
00:47 36.4 °F 34.8 °F 29.98 in Calm     94% 0.00 in 0.00 W/m2
00:52 36.4 °F 34.8 °F 29.98 in Calm     94% 0.00 in 0.00 W/m2
00:57 36.3 °F 34.7 °F 29.98 in ESE 4.0 mph 7.0 mph 94% 0.00 in 0.00 W/m2
01:02 36.2 °F 34.6 °F 29.97 in SE 8.0 mph 9.0 mph 94% 0.00 in 0.00 W/m2
01:07 36.0 °F 34.4 °F 29.97 in SE 2.0 mph 7.0 mph 94% 0.00 in 0.00 W/m2
01:12 35.8 °F 34.2 °F 29.96 in Calm   11.0 mph 94% 0.00 in 0.00 W/m2
01:13 35.8 °F 34.2 °F 29.96 in SE 9.0 mph 12.0 mph 94% 0.00 in 0.00 W/m2
01:18 35.7 °F 34.2 °F 29.96 in SE 6.0 mph 8.0 mph 94% 0.00 in 0.00 W/m2
01:23 35.7 °F 34.2 °F 29.96 in Calm   11.0 mph 94% 0.00 in 0.00 W/m2
01:28 35.7 °F 34.2 °F 29.96 in ESE 8.0 mph 9.0 mph 94% 0.00 in 0.00 W/m2
01:33 35.7 °F 34.2 °F 29.96 in ESE 5.0 mph 12.0 mph 94% 0.00 in 0.00 W/m2
01:38 35.7 °F 34.2 °F 29.95 in Calm   12.0 mph 94% 0.00 in 0.00 W/m2
01:43 35.7 °F 34.2 °F 29.96 in SE 1.0 mph 13.0 mph 94% 0.00 in 0.00 W/m2
01:48 35.6 °F 34.0 °F 29.96 in ESE 6.0 mph 13.0 mph 94% 0.00 in 0.00 W/m2
01:53 35.7 °F 34.2 °F 29.96 in ESE 11.0 mph 12.0 mph 94% 0.00 in 0.00 W/m2
01:58 35.7 °F 34.2 °F 29.96 in ESE 9.0 mph 16.0 mph 94% 0.00 in 0.00 W/m2
02:03 35.8 °F 34.2 °F 29.97 in Calm   11.0 mph 94% 0.00 in 0.00 W/m2
02:08 35.8 °F 34.2 °F 29.97 in Calm   8.0 mph 94% 0.00 in 0.00 W/m2
02:13 35.7 °F 34.2 °F 29.98 in Calm     94% 0.00 in 0.00 W/m2
02:19 35.5 °F 34.0 °F 29.98 in Calm     94% 0.00 in 0.00 W/m2
02:24 35.4 °F 33.8 °F 29.98 in Calm     94% 0.00 in 0.00 W/m2
02:29 35.4 °F 33.8 °F 29.98 in Calm     94% 0.00 in 0.00 W/m2
02:34 35.4 °F 33.8 °F 29.99 in Calm     94% 0.00 in 0.00 W/m2
02:39 35.3 °F 33.8 °F 29.99 in Calm     94% 0.00 in 0.00 W/m2
02:44 35.2 °F 33.7 °F 30.00 in Calm     94% 0.00 in 0.00 W/m2
02:49 35.0 °F 33.2 °F 30.00 in Calm     93% 0.00 in 0.00 W/m2
02:54 34.8 °F 33.0 °F 30.00 in SE 6.0 mph 6.0 mph 93% 0.00 in 0.00 W/m2
02:59 34.6 °F 32.8 °F 29.99 in SE 4.0 mph 8.0 mph 93% 0.00 in 0.00 W/m2
03:04 34.5 °F 32.7 °F 29.99 in SE 7.0 mph 7.0 mph 93% 0.00 in 0.00 W/m2
03:09 34.4 °F 32.6 °F 30.00 in Calm   4.0 mph 93% 0.00 in 0.00 W/m2
03:14 34.4 °F 32.6 °F 30.00 in Calm     93% 0.00 in 0.00 W/m2
03:19 34.3 °F 32.5 °F 30.00 in Calm     93% 0.00 in 0.00 W/m2
03:24 34.3 °F 32.5 °F 30.00 in SSE 5.0 mph 7.0 mph 93% 0.00 in 0.00 W/m2
03:29 34.4 °F 32.9 °F 30.00 in Calm   8.0 mph 94% 0.00 in 0.00 W/m2
03:34 34.4 °F 32.9 °F 30.00 in SSE 4.0 mph 8.0 mph 94% 0.00 in 0.00 W/m2
03:39 34.6 °F 33.0 °F 30.00 in SSE 8.0 mph 8.0 mph 94% 0.00 in 0.00 W/m2
03:44 34.8 °F 33.2 °F 30.00 in SSE 4.0 mph 6.0 mph 94% 0.00 in 0.00 W/m2
03:49 35.0 °F 33.5 °F 30.00 in SSE 4.0 mph 7.0 mph 94% 0.00 in 0.00 W/m2
03:54 35.2 °F 33.7 °F 29.99 in Calm   8.0 mph 94% 0.00 in 0.00 W/m2
03:59 35.4 °F 33.8 °F 29.98 in Calm   10.0 mph 94% 0.00 in 0.00 W/m2
04:04 35.6 °F 34.0 °F 29.98 in SSE 4.0 mph 10.0 mph 94% 0.00 in 0.00 W/m2
04:09 35.9 °F 34.3 °F 29.98 in Calm   11.0 mph 94% 0.00 in 0.00 W/m2
04:14 36.0 °F 34.4 °F 29.98 in Calm   11.0 mph 94% 0.00 in 0.00 W/m2
04:19 36.1 °F 34.5 °F 29.97 in SSE 5.0 mph 10.0 mph 94% 0.00 in 0.00 W/m2
04:24 36.2 °F 34.6 °F 29.98 in SSE 6.0 mph 11.0 mph 94% 0.00 in 0.00 W/m2
04:29 36.2 °F 34.6 °F 29.98 in SSE 1.0 mph 10.0 mph 94% 0.00 in 0.00 W/m2
04:34 36.3 °F 34.7 °F 29.97 in Calm   11.0 mph 94% 0.00 in 0.00 W/m2
04:39 36.4 °F 34.8 °F 29.97 in SSE 9.0 mph 13.0 mph 94% 0.00 in 0.00 W/m2
04:44 36.4 °F 34.8 °F 29.97 in SSE 6.0 mph 10.0 mph 94% 0.00 in 0.00 W/m2
04:49 36.5 °F 34.9 °F 29.97 in SSE 7.0 mph 11.0 mph 94% 0.00 in 0.00 W/m2
04:54 36.5 °F 34.9 °F 29.97 in SSE 9.0 mph 12.0 mph 94% 0.00 in 0.00 W/m2
04:59 36.6 °F 35.0 °F 29.96 in SSE 6.0 mph 14.0 mph 94% 0.00 in 0.00 W/m2
05:04 36.6 °F 35.0 °F 29.95 in SSE 8.0 mph 12.0 mph 94% 0.00 in 0.00 W/m2
05:09 36.6 °F 35.0 °F 29.95 in SSE 5.0 mph 11.0 mph 94% 0.00 in 0.00 W/m2
05:14 36.6 °F 35.0 °F 29.95 in SSE 6.0 mph 13.0 mph 94% 0.00 in 0.00 W/m2
05:19 36.6 °F 35.0 °F 29.94 in SSE 15.0 mph 15.0 mph 94% 0.00 in 0.00 W/m2
05:24 36.6 °F 35.0 °F 29.94 in SSE 8.0 mph 13.0 mph 94% 0.00 in 0.00 W/m2
05:29 36.6 °F 35.0 °F 29.95 in South 6.0 mph 13.0 mph 94% 0.00 in 0.00 W/m2
05:34 36.6 °F 35.0 °F 29.95 in SSE 7.0 mph 13.0 mph 94% 0.00 in 0.00 W/m2
05:39 36.5 °F 34.9 °F 29.96 in SSE 6.0 mph 11.0 mph 94% 0.00 in 0.00 W/m2
05:44 36.5 °F 34.9 °F 29.96 in SSE 5.0 mph 11.0 mph 94% 0.00 in 0.00 W/m2
05:49 36.5 °F 34.9 °F 29.95 in SSE 4.0 mph 10.0 mph 94% 0.00 in 0.00 W/m2
05:54 36.5 °F 34.9 °F 29.96 in SSE 7.0 mph 10.0 mph 94% 0.00 in 0.00 W/m2
05:59 36.5 °F 34.9 °F 29.95 in SSE 9.0 mph 11.0 mph 94% 0.00 in 0.00 W/m2
06:05 36.4 °F 34.8 °F 29.95 in SSE 6.0 mph 10.0 mph 94% 0.00 in 0.00 W/m2
06:10 36.4 °F 34.8 °F 29.95 in SSE 7.0 mph 8.0 mph 94% 0.00 in 0.00 W/m2
06:15 36.4 °F 34.8 °F 29.95 in SSE 6.0 mph 10.0 mph 94% 0.00 in 0.00 W/m2
06:20 36.4 °F 34.8 °F 29.95 in Calm   1.0 mph 94% 0.00 in 0.00 W/m2
06:25 36.4 °F 34.8 °F 29.96 in Calm     94% 0.00 in 0.00 W/m2
06:30 36.4 °F 34.8 °F 29.96 in Calm     94% 0.00 in 0.00 W/m2
06:35 36.3 °F 34.7 °F 29.97 in Calm     94% 0.00 in 0.00 W/m2
06:40 36.3 °F 34.7 °F 29.97 in Calm     94% 0.00 in 0.00 W/m2
06:45 36.3 °F 34.7 °F 29.97 in Calm     94% 0.00 in 0.00 W/m2
06:50 36.3 °F 34.7 °F 29.97 in Calm     94% 0.00 in 0.00 W/m2
06:55 36.4 °F 34.8 °F 29.97 in Calm     94% 0.00 in 0.00 W/m2
07:00 36.4 °F 34.8 °F 29.97 in Calm     94% 0.00 in 0.00 W/m2
07:05 36.4 °F 34.8 °F 29.97 in Calm     94% 0.00 in 0.00 W/m2
07:10 36.4 °F 34.8 °F 29.98 in Calm     94% 0.00 in 0.00 W/m2
07:15 36.5 °F 34.9 °F 29.98 in Calm     94% 0.00 in 0.00 W/m2
07:20 36.6 °F 35.0 °F 29.97 in Calm     94% 0.00 in 0.00 W/m2
07:25 36.6 °F 35.0 °F 29.97 in Calm     94% 0.00 in 0.00 W/m2
07:30 36.6 °F 35.0 °F 29.97 in Calm     94% 0.00 in 0.00 W/m2
07:35 36.6 °F 35.0 °F 29.97 in Calm     94% 0.00 in 0.00 W/m2
07:40 36.6 °F 35.0 °F 29.98 in Calm     94% 0.00 in 0.00 W/m2
07:45 36.6 °F 35.0 °F 29.97 in Calm     94% 0.00 in 0.00 W/m2
07:50 36.6 °F 35.0 °F 29.97 in Calm     94% 0.00 in 5.00 W/m2
07:55 36.5 °F 34.9 °F 29.97 in Calm     94% 0.00 in 5.00 W/m2
08:00 36.5 °F 34.9 °F 29.97 in Calm     94% 0.00 in 7.00 W/m2
08:05 36.4 °F 34.8 °F 29.97 in Calm     94% 0.00 in 7.00 W/m2
08:10 36.4 °F 34.8 °F 29.97 in Calm     94% 0.00 in 7.00 W/m2
08:15 36.4 °F 34.8 °F 29.97 in Calm     94% 0.00 in 7.00 W/m2
08:20 36.3 °F 34.7 °F 29.97 in Calm     94% 0.00 in 9.00 W/m2
08:25 36.2 °F 34.6 °F 29.97 in Calm     94% 0.00 in 9.00 W/m2
08:30 36.2 °F 34.6 °F 29.97 in South 9.0 mph 16.0 mph 94% 0.00 in 11.00 W/m2
08:35 36.1 °F 34.5 °F 29.97 in SSE 4.0 mph 15.0 mph 94% 0.00 in 11.00 W/m2
08:40 36.0 °F 34.4 °F 29.97 in South 6.0 mph 14.0 mph 94% 0.00 in 11.00 W/m2
08:45 36.0 °F 34.4 °F 29.97 in SE 8.0 mph 17.0 mph 94% 0.00 in 12.00 W/m2
08:50 36.0 °F 34.4 °F 29.97 in South 7.0 mph 12.0 mph 94% 0.00 in 14.00 W/m2
08:55 36.0 °F 34.4 °F 29.98 in South 8.0 mph 13.0 mph 94% 0.00 in 14.00 W/m2
09:00 36.0 °F 34.4 °F 29.98 in SSE 5.0 mph 10.0 mph 94% 0.00 in 14.00 W/m2
09:05 35.9 °F 34.3 °F 29.98 in Calm   10.0 mph 94% 0.00 in 14.00 W/m2
09:10 35.9 °F 34.3 °F 29.98 in SSE 8.0 mph 10.0 mph 94% 0.00 in 18.00 W/m2
09:15 35.9 °F 34.3 °F 29.98 in SE 5.0 mph 15.0 mph 94% 0.00 in 18.00 W/m2
09:20 35.9 °F 34.3 °F 29.98 in SSE 10.0 mph 16.0 mph 94% 0.00 in 19.00 W/m2
09:25 35.9 °F 34.3 °F 29.98 in SSE 10.0 mph 19.0 mph 94% 0.00 in 18.00 W/m2
09:30 35.9 °F 34.3 °F 29.98 in South 6.0 mph 11.0 mph 94% 0.00 in 18.00 W/m2
09:35 35.9 °F 34.3 °F 29.99 in SSE 11.0 mph 13.0 mph 94% 0.00 in 19.00 W/m2
09:36 35.9 °F 34.3 °F 29.98 in SSE 8.0 mph 13.0 mph 94% 0.00 in 18.00 W/m2
09:41 35.9 °F 34.3 °F 29.98 in SSE 8.0 mph 15.0 mph 94% 0.00 in 18.00 W/m2
09:46 35.9 °F 34.3 °F 29.98 in South 4.0 mph 14.0 mph 94% 0.00 in 19.00 W/m2
09:51 35.9 °F 34.3 °F 29.98 in SSE 11.0 mph 14.0 mph 94% 0.00 in 23.00 W/m2
09:56 35.9 °F 34.3 °F 29.99 in South 6.0 mph 12.0 mph 94% 0.00 in 21.00 W/m2
10:01 35.9 °F 34.3 °F 29.99 in South 8.0 mph 12.0 mph 94% 0.00 in 21.00 W/m2
10:06 35.9 °F 34.3 °F 29.99 in Calm   9.0 mph 94% 0.00 in 21.00 W/m2
10:11 35.9 °F 34.3 °F 29.99 in South 13.0 mph 15.0 mph 94% 0.00 in 23.00 W/m2
10:16 35.9 °F 34.3 °F 29.99 in SSE 7.0 mph 13.0 mph 94% 0.00 in 25.00 W/m2
10:21 35.9 °F 34.3 °F 30.00 in SSE 10.0 mph 11.0 mph 94% 0.00 in 26.00 W/m2
10:26 35.9 °F 34.6 °F 29.99 in SSE 6.0 mph 10.0 mph 95% 0.00 in 25.00 W/m2
10:31 35.9 °F 34.6 °F 29.99 in SSE 8.0 mph 14.0 mph 95% 0.00 in 19.00 W/m2
10:36 35.9 °F 34.6 °F 29.99 in SSE 4.0 mph 11.0 mph 95% 0.00 in 19.00 W/m2
10:41 35.9 °F 34.6 °F 29.98 in SSE 2.0 mph 11.0 mph 95% 0.00 in 23.00 W/m2
10:46 36.0 °F 34.7 °F 29.98 in South 8.0 mph 13.0 mph 95% 0.00 in 28.00 W/m2
10:51 35.9 °F 34.6 °F 29.99 in South 9.0 mph 14.0 mph 95% 0.00 in 26.00 W/m2
10:56 35.9 °F 34.6 °F 29.99 in South 8.0 mph 14.0 mph 95% 0.00 in 30.00 W/m2
11:01 35.9 °F 34.6 °F 29.98 in SSE 6.0 mph 14.0 mph 95% 0.00 in 33.00 W/m2
11:06 36.0 °F 34.7 °F 29.98 in South 6.0 mph 14.0 mph 95% 0.67 in 37.00 W/m2
11:11 36.0 °F 34.7 °F 29.98 in South 1.0 mph 10.0 mph 95% 0.10 in 35.00 W/m2
11:16 36.0 °F 34.7 °F 29.98 in South 8.0 mph 11.0 mph 95% 0.05 in 33.00 W/m2
11:21 36.0 °F 34.7 °F 29.97 in South 11.0 mph 14.0 mph 95% 0.04 in 30.00 W/m2
11:26 36.0 °F 34.7 °F 29.97 in South 2.0 mph 12.0 mph 95% 0.00 in 30.00 W/m2
11:31 36.0 °F 34.7 °F 29.97 in SSW 3.0 mph 11.0 mph 95% 0.00 in 21.00 W/m2
11:36 36.0 °F 34.7 °F 29.98 in SSW 3.0 mph 11.0 mph 95% 0.00 in 19.00 W/m2
11:41 36.0 °F 34.7 °F 29.98 in South 8.0 mph 16.0 mph 95% 0.00 in 25.00 W/m2
11:46 36.0 °F 34.7 °F 29.97 in SSW 7.0 mph 15.0 mph 95% 0.00 in 18.00 W/m2
11:51 36.0 °F 34.7 °F 29.97 in SSW 7.0 mph 16.0 mph 95% 0.00 in 33.00 W/m2
11:56 35.9 °F 34.6 °F 29.97 in SSE 9.0 mph 13.0 mph 95% 0.00 in 35.00 W/m2
12:01 35.9 °F 34.6 °F 29.96 in South 11.0 mph 16.0 mph 95% 0.00 in 35.00 W/m2
12:06 36.0 °F 34.7 °F 29.97 in South 3.0 mph 12.0 mph 95% 0.00 in 26.00 W/m2
12:11 35.9 °F 34.6 °F 29.96 in South 5.0 mph 13.0 mph 95% 0.00 in 26.00 W/m2
12:16 36.0 °F 34.7 °F 29.95 in South 7.0 mph 10.0 mph 95% 0.00 in 65.00 W/m2
12:17 36.0 °F 34.7 °F 29.95 in South 3.0 mph 12.0 mph 95% 0.00 in 63.00 W/m2
12:22 36.0 °F 34.7 °F 29.95 in South 2.0 mph 11.0 mph 95% 0.00 in 60.00 W/m2
12:27 36.0 °F 34.7 °F 29.95 in SSE 6.0 mph 14.0 mph 95% 0.00 in 54.00 W/m2
12:32 36.1 °F 34.8 °F 29.95 in SSE 9.0 mph 15.0 mph 95% 0.00 in 56.00 W/m2
12:37 36.1 °F 34.8 °F 29.94 in SSE 7.0 mph 13.0 mph 95% 0.00 in 58.00 W/m2
12:42 36.1 °F 34.8 °F 29.94 in South 4.0 mph 15.0 mph 95% 0.00 in 35.00 W/m2
12:47 36.1 °F 34.8 °F 29.94 in SSE 15.0 mph 19.0 mph 95% 0.00 in 30.00 W/m2
12:52 36.1 °F 34.8 °F 29.94 in South 12.0 mph 13.0 mph 95% 0.00 in 33.00 W/m2
12:57 36.2 °F 34.9 °F 29.94 in South 7.0 mph 15.0 mph 95% 0.00 in 37.00 W/m2
13:02 36.2 °F 34.9 °F 29.94 in SSE 9.0 mph 13.0 mph 95% 0.00 in 37.00 W/m2
13:07 36.2 °F 34.9 °F 29.94 in South 8.0 mph 8.0 mph 95% 0.00 in 25.00 W/m2
13:12 36.2 °F 34.9 °F 29.94 in South 7.0 mph 11.0 mph 95% 0.00 in 49.00 W/m2
13:17 36.2 °F 34.9 °F 29.94 in South 5.0 mph 15.0 mph 95% 0.00 in 60.00 W/m2
13:22 36.3 °F 35.0 °F 29.94 in SSE 7.0 mph 10.0 mph 95% 0.00 in 93.00 W/m2
13:27 36.3 °F 35.0 °F 29.94 in South 5.0 mph 11.0 mph 95% 0.00 in 88.00 W/m2
13:32 36.4 °F 35.1 °F 29.94 in South 8.0 mph 17.0 mph 95% 0.00 in 116.00 W/m2
13:38 36.4 °F 35.1 °F 29.94 in South 15.0 mph 18.0 mph 95% 0.00 in 69.00 W/m2
13:43 36.5 °F 35.2 °F 29.93 in South 8.0 mph 12.0 mph 95% 0.00 in 63.00 W/m2
13:48 36.5 °F 36.5 °F 29.93 in SSE 14.0 mph 14.0 mph 100% 0.00 in 83.00 W/m2
13:53 36.5 °F 35.2 °F 29.93 in South 8.0 mph 14.0 mph 95% 0.00 in 165.00 W/m2
13:58 36.6 °F 35.3 °F 29.93 in South 9.0 mph 11.0 mph 95% 0.00 in 135.00 W/m2
14:03 36.7 °F 35.4 °F 29.93 in South 9.0 mph 11.0 mph 95% 0.00 in 62.00 W/m2
14:08 36.7 °F 35.4 °F 29.93 in Calm     95% 0.00 in 88.00 W/m2
14:13 36.7 °F 35.4 °F 29.93 in South 9.0 mph 14.0 mph 95% 0.00 in 32.00 W/m2
14:18 36.8 °F 35.5 °F 29.92 in SSE 5.0 mph 16.0 mph 95% 0.00 in 70.00 W/m2
14:23 36.8 °F 35.5 °F 29.92 in South 11.0 mph 12.0 mph 95% 0.00 in 44.00 W/m2
14:28 36.7 °F 35.4 °F 29.92 in SSE 12.0 mph 13.0 mph 95% 0.00 in 69.00 W/m2
14:33 36.7 °F 35.4 °F 29.92 in SSE 12.0 mph 14.0 mph 95% 0.00 in 25.00 W/m2
14:38 36.7 °F 35.4 °F 29.92 in South 7.0 mph 12.0 mph 95% 0.00 in 28.00 W/m2
14:43 36.6 °F 35.3 °F 29.92 in South 9.0 mph 12.0 mph 95% 0.00 in 21.00 W/m2
14:48 36.6 °F 35.3 °F 29.92 in SSW 3.0 mph 15.0 mph 95% 0.00 in 32.00 W/m2
14:53 36.6 °F 35.3 °F 29.92 in South 8.0 mph 16.0 mph 95% 0.00 in 46.00 W/m2
14:58 36.5 °F 35.2 °F 29.92 in South 10.0 mph 11.0 mph 95% 0.00 in 28.00 W/m2
15:03 36.5 °F 35.2 °F 29.92 in SSW 10.0 mph 12.0 mph 95% 0.00 in 47.00 W/m2
15:08 36.5 °F 35.2 °F 29.92 in South 1.0 mph 14.0 mph 95% 0.00 in 28.00 W/m2
15:13 36.4 °F 35.1 °F 29.92 in South 1.0 mph 15.0 mph 95% 0.00 in 30.00 W/m2
15:18 36.4 °F 35.1 °F 29.92 in South 15.0 mph 17.0 mph 95% 0.00 in 40.00 W/m2
15:23 36.4 °F 35.1 °F 29.92 in South 14.0 mph 16.0 mph 95% 0.00 in 30.00 W/m2
15:28 36.3 °F 35.0 °F 29.92 in SSW 7.0 mph 13.0 mph 95% 0.00 in 23.00 W/m2
15:33 36.2 °F 34.9 °F 29.92 in SSW 8.0 mph 15.0 mph 95% 0.00 in 11.00 W/m2
15:38 36.2 °F 34.9 °F 29.92 in SSW 10.0 mph 21.0 mph 95% 0.00 in 12.00 W/m2
15:43 36.2 °F 34.9 °F 29.93 in SSW 4.0 mph 15.0 mph 95% 0.00 in 9.00 W/m2
15:48 36.1 °F 34.8 °F 29.92 in SSE 12.0 mph 13.0 mph 95% 0.00 in 14.00 W/m2
15:53 36.1 °F 34.8 °F 29.92 in SSW 8.0 mph 10.0 mph 95% 0.00 in 28.00 W/m2
15:58 36.0 °F 34.7 °F 29.92 in South 17.0 mph 17.0 mph 95% 0.00 in 19.00 W/m2
16:03 36.0 °F 34.7 °F 29.92 in South 16.0 mph 16.0 mph 95% 0.00 in 25.00 W/m2
16:08 35.9 °F 34.6 °F 29.92 in South 2.0 mph 13.0 mph 95% 0.00 in 19.00 W/m2
16:13 35.9 °F 34.6 °F 29.92 in South 10.0 mph 13.0 mph 95% 0.00 in 14.00 W/m2
16:18 35.7 °F 34.2 °F 29.92 in Calm   1.0 mph 94% 0.00 in 12.00 W/m2
16:23 35.7 °F 34.2 °F 29.92 in South 5.0 mph 11.0 mph 94% 0.00 in 9.00 W/m2
16:28 35.6 °F 34.0 °F 29.92 in South 8.0 mph 8.0 mph 94% 0.00 in 7.00 W/m2
16:33 35.6 °F 34.0 °F 29.92 in SSE 5.0 mph 11.0 mph 94% 0.00 in 9.00 W/m2
16:38 35.6 °F 34.0 °F 29.91 in South 5.0 mph 10.0 mph 94% 0.00 in 5.00 W/m2
16:43 35.6 °F 34.0 °F 29.92 in SSE 7.0 mph 13.0 mph 94% 0.00 in 0.00 W/m2
16:48 35.6 °F 34.0 °F 29.92 in SSE 7.0 mph 16.0 mph 94% 0.00 in 0.00 W/m2
16:53 35.6 °F 34.0 °F 29.91 in South 6.0 mph 11.0 mph 94% 0.00 in 0.00 W/m2
16:58 35.6 °F 34.0 °F 29.91 in SSE 5.0 mph 13.0 mph 94% 0.00 in 0.00 W/m2
17:03 35.6 °F 34.0 °F 29.91 in South 4.0 mph 10.0 mph 94% 0.00 in 0.00 W/m2
17:08 35.6 °F 34.0 °F 29.91 in SSE 10.0 mph 11.0 mph 94% 0.00 in 0.00 W/m2
17:13 35.6 °F 34.0 °F 29.92 in SSE 10.0 mph 13.0 mph 94% 0.00 in 0.00 W/m2
17:18 35.5 °F 34.0 °F 29.92 in SSE 7.0 mph 14.0 mph 94% 0.00 in 0.00 W/m2
17:24 35.5 °F 34.0 °F 29.92 in SSE 2.0 mph 7.0 mph 94% 0.00 in 0.00 W/m2
17:29 35.6 °F 34.0 °F 29.92 in SW 6.0 mph 13.0 mph 94% 0.00 in 0.00 W/m2
17:33 35.5 °F 34.0 °F 29.93 in South 3.0 mph 12.0 mph 94% 0.00 in 0.00 W/m2
17:39 35.5 °F 34.0 °F 29.92 in SW 9.0 mph 26.0 mph 94% 0.00 in 0.00 W/m2
17:44 35.5 °F 34.0 °F 29.93 in SSW 5.0 mph 15.0 mph 94% 0.00 in 0.00 W/m2
17:49 35.5 °F 34.0 °F 29.93 in SSW 12.0 mph 16.0 mph 94% 0.00 in 0.00 W/m2
17:54 35.5 °F 34.0 °F 29.93 in SSW 13.0 mph 19.0 mph 94% 0.00 in 0.00 W/m2
17:59 35.5 °F 34.0 °F 29.93 in SSE 16.0 mph 22.0 mph 94% 0.00 in 0.00 W/m2
18:04 35.4 °F 33.8 °F 29.93 in SSW 1.0 mph 17.0 mph 94% 0.00 in 0.00 W/m2
18:09 35.5 °F 34.0 °F 29.93 in SW 11.0 mph 24.0 mph 94% 0.00 in 0.00 W/m2
18:14 35.5 °F 34.0 °F 29.93 in South 12.0 mph 21.0 mph 94% 0.00 in 0.00 W/m2
18:19 35.5 °F 34.0 °F 29.93 in WSW 18.0 mph 18.0 mph 94% 0.00 in 0.00 W/m2
18:24 35.5 °F 34.0 °F 29.93 in South 7.0 mph 15.0 mph 94% 0.00 in 0.00 W/m2
18:29 35.5 °F 34.0 °F 29.93 in SSW 11.0 mph 18.0 mph 94% 0.00 in 0.00 W/m2
18:34 35.6 °F 34.0 °F 29.93 in South 11.0 mph 13.0 mph 94% 0.00 in 0.00 W/m2
18:39 35.6 °F 34.0 °F 29.93 in SW 7.0 mph 19.0 mph 94% 0.00 in 0.00 W/m2
18:44 35.6 °F 34.0 °F 29.93 in SSW 11.0 mph 20.0 mph 94% 0.00 in 0.00 W/m2
18:49 35.6 °F 34.0 °F 29.93 in South 8.0 mph 15.0 mph 94% 0.00 in 0.00 W/m2
18:54 35.7 °F 34.2 °F 29.93 in SSW 9.0 mph 15.0 mph 94% 0.00 in 0.00 W/m2
18:59 35.7 °F 34.2 °F 29.93 in South 15.0 mph 18.0 mph 94% 0.00 in 0.00 W/m2
19:04 35.7 °F 34.2 °F 29.93 in South 8.0 mph 12.0 mph 94% 0.00 in 0.00 W/m2
19:09 35.7 °F 34.2 °F 29.93 in South 11.0 mph 19.0 mph 94% 0.00 in 0.00 W/m2
19:14 35.7 °F 34.2 °F 29.93 in South 13.0 mph 16.0 mph 94% 0.00 in 0.00 W/m2
19:19 35.8 °F 34.2 °F 29.93 in SW 14.0 mph 18.0 mph 94% 0.00 in 0.00 W/m2
19:24 35.8 °F 34.2 °F 29.94 in SSE 9.0 mph 15.0 mph 94% 0.00 in 0.00 W/m2
19:29 35.8 °F 34.2 °F 29.93 in South 15.0 mph 15.0 mph 94% 0.00 in 0.00 W/m2
19:34 35.7 °F 34.2 °F 29.94 in SSW 6.0 mph 18.0 mph 94% 0.00 in 0.00 W/m2
19:39 35.7 °F 34.2 °F 29.94 in SSW 9.0 mph 14.0 mph 94% 0.00 in 0.00 W/m2
19:44 35.7 °F 34.2 °F 29.94 in SSE 11.0 mph 14.0 mph 94% 0.00 in 0.00 W/m2
19:49 35.7 °F 34.2 °F 29.94 in SSW 2.0 mph 14.0 mph 94% 0.00 in 0.00 W/m2
19:54 35.7 °F 34.2 °F 29.93 in SSE 13.0 mph 21.0 mph 94% 0.00 in 0.00 W/m2
19:59 35.7 °F 34.2 °F 29.93 in South 17.0 mph 20.0 mph 94% 0.00 in 0.00 W/m2
20:04 35.8 °F 34.2 °F 29.93 in South 4.0 mph 19.0 mph 94% 0.00 in 0.00 W/m2
20:09 35.8 °F 34.2 °F 29.94 in SSW 8.0 mph 19.0 mph 94% 0.00 in 0.00 W/m2
20:14 35.9 °F 34.3 °F 29.95 in South 8.0 mph 21.0 mph 94% 0.00 in 0.00 W/m2
20:19 35.9 °F 34.3 °F 29.95 in ESE 9.0 mph 23.0 mph 94% 0.00 in 0.00 W/m2
20:24 35.8 °F 34.2 °F 29.95 in SSW 8.0 mph 17.0 mph 94% 0.00 in 0.00 W/m2
20:29 35.8 °F 34.2 °F 29.96 in South 8.0 mph 21.0 mph 94% 0.00 in 0.00 W/m2
20:34 35.7 °F 33.9 °F 29.96 in South 12.0 mph 22.0 mph 93% 0.00 in 0.00 W/m2
20:39 35.7 °F 33.9 °F 29.96 in SSW 14.0 mph 20.0 mph 93% 0.00 in 0.00 W/m2
20:44 35.7 °F 33.9 °F 29.96 in South 16.0 mph 18.0 mph 93% 0.00 in 0.00 W/m2
20:49 35.7 °F 33.9 °F 29.96 in SW 6.0 mph 14.0 mph 93% 0.00 in 0.00 W/m2
20:54 35.6 °F 33.8 °F 29.96 in SSE 5.0 mph 20.0 mph 93% 0.00 in 0.00 W/m2
20:59 35.6 °F 33.8 °F 29.96 in SSW 4.0 mph 19.0 mph 93% 0.00 in 0.00 W/m2
21:04 35.5 °F 33.7 °F 29.96 in West 12.0 mph 24.0 mph 93% 0.00 in 0.00 W/m2
21:09 35.5 °F 33.7 °F 29.96 in SSW 11.0 mph 20.0 mph 93% 0.00 in 0.00 W/m2
21:14 35.4 °F 33.6 °F 29.96 in SSW 13.0 mph 24.0 mph 93% 0.00 in 0.00 W/m2
21:19 35.4 °F 33.6 °F 29.96 in SSE 19.0 mph 23.0 mph 93% 0.00 in 0.00 W/m2
21:24 35.3 °F 33.5 °F 29.96 in SW 5.0 mph 19.0 mph 93% 0.00 in 0.00 W/m2
21:29 35.3 °F 33.5 °F 29.97 in South 9.0 mph 18.0 mph 93% 0.00 in 0.00 W/m2
21:34 35.4 °F 33.6 °F 29.97 in WSW 10.0 mph 22.0 mph 93% 0.00 in 0.00 W/m2
21:39 35.5 °F 33.7 °F 29.98 in SSW 7.0 mph 15.0 mph 93% 0.00 in 0.00 W/m2
21:44 35.5 °F 34.0 °F 29.98 in SSE 15.0 mph 20.0 mph 94% 0.00 in 0.00 W/m2
21:49 35.5 °F 34.0 °F 29.98 in SW 10.0 mph 17.0 mph 94% 0.00 in 0.00 W/m2
21:54 35.5 °F 34.0 °F 29.98 in SSW 5.0 mph 17.0 mph 94% 0.00 in 0.00 W/m2
21:59 35.5 °F 34.0 °F 29.99 in SSW 11.0 mph 18.0 mph 94% 0.00 in 0.00 W/m2
22:04 35.5 °F 34.0 °F 29.98 in SW 15.0 mph 15.0 mph 94% 0.00 in 0.00 W/m2
22:09 35.5 °F 34.0 °F 29.98 in SSW 14.0 mph 21.0 mph 94% 0.00 in 0.00 W/m2
22:14 35.4 °F 33.8 °F 29.98 in South 4.0 mph 14.0 mph 94% 0.00 in 0.00 W/m2
22:19 35.3 °F 33.8 °F 29.99 in SSW 4.0 mph 16.0 mph 94% 0.00 in 0.00 W/m2
22:24 35.3 °F 33.5 °F 29.99 in SSW 5.0 mph 16.0 mph 93% 0.00 in 0.00 W/m2
22:29 35.3 °F 33.5 °F 29.99 in SW 11.0 mph 12.0 mph 93% 0.00 in 0.00 W/m2
22:34 35.1 °F 33.3 °F 29.99 in SSW 4.0 mph 17.0 mph 93% 0.00 in 0.00 W/m2
22:39 35.0 °F 33.2 °F 29.99 in SW 5.0 mph 14.0 mph 93% 0.00 in 0.00 W/m2
22:44 34.8 °F 33.0 °F 29.99 in WSW 4.0 mph 14.0 mph 93% 0.00 in 0.00 W/m2
22:49 34.7 °F 32.9 °F 29.99 in Calm   17.0 mph 93% 0.00 in 0.00 W/m2
22:54 34.5 °F 32.7 °F 30.00 in SSW 12.0 mph 15.0 mph 93% 0.00 in 0.00 W/m2
23:00 34.4 °F 32.6 °F 29.99 in SSW 6.0 mph 18.0 mph 93% 0.00 in 0.00 W/m2
23:05 34.3 °F 32.5 °F 30.00 in SW 11.0 mph 15.0 mph 93% 0.00 in 0.00 W/m2
23:10 34.3 °F 32.8 °F 29.99 in SSW 6.0 mph 14.0 mph 94% 0.00 in 0.00 W/m2
23:15 34.3 °F 32.8 °F 29.99 in SW 15.0 mph 15.0 mph 94% 0.00 in 0.00 W/m2
23:20 34.1 °F 32.3 °F 30.00 in SSW 6.0 mph 12.0 mph 93% 0.00 in 0.00 W/m2
23:25 34.0 °F 32.2 °F 29.99 in SSW 14.0 mph 14.0 mph 93% 0.00 in 0.00 W/m2
23:30 33.9 °F 32.1 °F 29.99 in SSW 6.0 mph 12.0 mph 93% 0.00 in 0.00 W/m2
23:35 33.7 °F 32.2 °F 29.99 in SSW 8.0 mph 16.0 mph 94% 0.00 in 0.00 W/m2
23:40 33.6 °F 32.1 °F 29.99 in SW 7.0 mph 12.0 mph 94% 0.00 in 0.00 W/m2
23:45 33.5 °F 32.0 °F 29.99 in SW 5.0 mph 13.0 mph 94% 0.00 in 0.00 W/m2
23:50 33.4 °F 31.9 °F 29.99 in Calm   15.0 mph 94% 0.00 in 0.00 W/m2
23:55 33.4 °F 31.9 °F 29.99 in South 5.0 mph 11.0 mph 94% 0.00 in 0.00 W/m2
Foresthill Weather
 WU-history PHP script courtesy of   Juneau County Weather.
powered by Cumulus v1.9.3 (1059)
Ambient Weather VWS v14.00
Top Contact Website Map Copyright © 2007 - 2018 Foresthillweather.com Never base important decisions on this or any weather information obtained from the Internet